Carson Sink, Nevada Weather observations

Data are for observation ending at time listed.
 Day   Time    Ave.   Ave.  Ave.  Vector   Max.   Stn.    Total    Solar   Ave.  
  of    of     Air    Rel.  Wind   Wind    Wind   Baro.  Precip.   Rad.    Soil  
Year   Day     Temp.  Hum.  Speed  Dir.    Gust   Pres.                    Temp. 
2016   (PST)    F      %     mph   deg.    mph     mb.     in.     W/m2     F   
------------------------------------------------------------------------------
 148   19:30   70.2    14   12.7   334     15.7   878.6    0.00       2     79.2
 148   19:40   69.9    15   10.2   338     12.6   878.6    0.00       0     79.0
 148   19:50   69.4    15    9.3   334     11.5   878.7    0.00       0     78.7
 148   20:00   68.2    17    7.1   326      9.3   878.8    0.00       0     78.5
 148   20:10   67.7    17   12.6   331     16.3   878.9    0.00       0     78.3
 148   20:20   67.6    18   12.7   345     15.3   879.0    0.00       0     78.0
 148   20:30   67.7    19   13.4   358     16.7   879.1    0.00       0     77.8
 148   20:40   67.5    19   11.7     2     13.4   879.3    0.00       0     77.5
 148   20:50   66.9    20   10.1   354     13.2   879.4    0.00       0     77.3
 148   21:00   65.8    21    8.6   336     11.2   879.7    0.00       0     77.1
 148   21:10   64.5    22   13.3   338     16.2   879.8    0.00       0     76.8
 148   21:20   64.0    23   11.9     5     15.3   879.9    0.00       0     76.6
 148   21:30   64.8    21    8.1    51     11.5   880.0    0.00       0     76.3
 148   21:40   64.4    22   10.6    58     14.5   880.1    0.00       0     76.1
 148   21:50   63.8    22   11.1    66     14.3   880.2    0.00       0     75.9
 148   22:00   63.7    23   10.4    54     13.3   880.3    0.00       0     75.7
 148   22:10   63.8    22   11.1    41     13.9   880.3    0.00       0     75.4
 148   22:20   63.6    23   10.2    29     13.0   880.4    0.00       0     75.2
 148   22:30   63.1    24    7.3    44      9.6   880.5    0.00       0     74.9
 148   22:40   62.7    24    8.0    56     10.1   880.5    0.00       0     74.8
 148   22:50   62.2    25    6.8    69      8.8   880.6    0.00       0     74.5
 148   23:00   61.6    25    7.6    66      9.2   880.6    0.00       0     74.3
 148   23:10   61.1    25    9.7    67     13.2   880.6    0.00       0     74.1
 148   23:20   61.5    24   11.7    58     16.2   880.6    0.00       0     73.9
 148   23:30   61.5    24   11.2    51     14.8   880.6    0.00       0     73.7
 148   23:40   61.1    25   10.1    46     12.1   880.6    0.00       0     73.5
 148   23:50   60.5    26    7.9    51      9.1   880.6    0.00       0     73.3
 149    0:00   60.2    26    8.1    43      9.4   880.6    0.00       0     73.1
 149    0:10   59.6    26    7.7    15      9.8   880.7    0.00       0     72.9
 149    0:20   57.8    29    6.7   356      8.4   880.8    0.00       0     72.7
 149    0:30   57.3    30    6.4     9      8.4   880.9    0.00       0     72.5
 149    0:40   57.6    28    6.5     3      8.0   880.8    0.00       0     72.3
 149    0:50   57.3    29    6.6   357      8.0   880.9    0.00       0     72.1
 149    1:00   56.8    29    5.3   357      6.5   880.9    0.00       0     71.9
 149    1:10   56.4    29    5.6    12      7.5   880.8    0.00       0     71.7
 149    1:20   56.1    29    7.8    32      9.0   880.9    0.00       0     71.5
 149    1:30   56.3    28    8.1    31     10.1   880.9    0.00       0     71.3
 149    1:40   56.5    28    8.4    39     12.3   881.0    0.00       0     71.2
 149    1:50   57.7    25   11.4    47     13.9   881.0    0.00       0     71.0
 149    2:00   58.0    24   11.3    38     13.9   880.9    0.00       0     70.8
 149    2:10   57.8    24   11.1    28     14.6   880.9    0.00       0     70.6
 149    2:20   54.5    29    8.3     4     10.3   880.8    0.00       0     70.4
 149    2:30   53.5    30    7.5    15      9.1   880.8    0.00       0     70.2
 149    2:40   53.2    30    7.5     2     10.2   880.8    0.00       0     70.0
 149    2:50   52.2    32    7.1   356      8.1   880.8    0.00       0     69.9
 149    3:00   52.1    31    7.5   358      9.0   880.8    0.00       0     69.7
 149    3:10   52.4    30    8.2   359      9.6   880.8    0.00       0     69.5
 149    3:20   52.5    30    8.5     5      9.9   880.8    0.00       0     69.3
 149    3:30   52.6    29    9.2     6     10.5   880.8    0.00       0     69.2
 149    3:40   52.5    29    8.5    10      9.9   880.9    0.00       0     69.0
 149    3:50   52.1    30   10.3    14     12.9   880.9    0.00       0     68.8
 149    4:00   51.6    30   12.5    17     14.8   880.9    0.00       0     68.7
 149    4:10   51.2    31   13.2    11     15.9   881.0    0.00       0     68.5
 149    4:20   50.8    31   12.8    12     15.1   881.0    0.00       1     68.3
 149    4:30   50.4    32   11.2    15     12.9   881.1    0.00       3     68.1
 149    4:40   50.8    32   13.5    23     16.3   881.2    0.00       9     68.0
 149    4:50   50.4    32   14.8    28     17.8   881.2    0.00      23     67.8
 149    5:00   50.5    32   13.9    26     16.6   881.4    0.00      47     67.7
 149    5:10   49.9    33   12.6    16     15.1   881.4    0.00      77     67.5
 149    5:20   49.7    33   12.4    17     14.5   881.5    0.00     107     67.3
 149    5:30   50.0    32   12.8    15     15.1   881.5    0.00     137     67.2
 149    5:40   50.7    31   11.7    14     14.0   881.6    0.00     169     67.0
 149    5:50   51.6    30   12.1    13     15.4   881.6    0.00     202     66.9
 149    6:00   52.1    29   13.8    11     16.1   881.7    0.00     234     66.8
 149    6:10   53.3    28   14.4    16     17.1   881.7    0.00     264     66.6
 149    6:20   54.0    26   16.3    20     19.3   881.8    0.00     283     66.5
 149    6:30   55.0    25   16.9    19     19.6   881.8    0.00     334     66.5
 149    6:40   56.0    24   17.2    25     19.5   881.9    0.00     367     66.4
 149    6:50   58.0    22   17.5    27     20.5   881.9    0.00     401     66.3
 149    7:00   58.6    22   14.8    18     19.0   882.0    0.00     434     66.3
 149    7:10   59.0    21   13.4    14     17.4   882.0    0.00     467     66.3
 149    7:20   59.8    20   13.4    23     16.4   882.1    0.00     500     66.3
 149    7:30   60.3    20   11.0    21     15.6   882.1    0.00     529     66.3
 149    7:40   61.1    20   11.0    20     15.1   882.2    0.00     561     66.4
 149    7:50   61.8    19   12.0    20     15.6   882.1    0.00     593     66.5
 149    8:00   62.5    19   10.7    18     14.4   882.1    0.00     621     66.5
 149    8:10   63.0    19   10.5    13     15.3   882.0    0.00     650     66.7
 149    8:20   63.9    18   10.2     9     13.9   882.0    0.00     678     66.8
 149    8:30   65.1    18    9.7     5     14.4   881.9    0.00     704     67.0
 149    8:40   65.8    18    7.4    55     11.0   881.9    0.00     732     67.2
 149    8:50   66.1    18    7.5    34     13.6   881.9    0.00     758     67.4
 149    9:00   67.0    18    4.8    67     11.1   881.8    0.00     782     67.7
 149    9:10   66.8    18    5.0    88     11.9   881.8    0.00     806     67.9
 149    9:20   67.5    18    4.8    83      9.4   881.8    0.00     826     68.3
 149    9:30   67.6    18    4.9   117      9.0   881.7    0.00     844     68.5
 149    9:40   67.8    18    6.2    88     11.5   881.8    0.00     865     68.9
 149    9:50   68.8    18    3.2   202      7.8   881.8    0.00     881     69.2
 149   10:00   68.3    18    5.0   112     11.5   881.8    0.00     898     69.6
 149   10:10   68.9    18    3.7    96      7.2   881.8    0.00     915     70.0
 149   10:20   69.4    18    2.3   180      5.3   881.8    0.00     929     70.4
 149   10:30   70.3    18    1.4   309      3.9   881.7    0.00     943     70.9
 149   10:40   71.5    17    2.2    56      5.5   881.6    0.00     956     71.3
 149   10:50   70.5    18    4.1   112      7.4   881.4    0.00     951     71.8
 149   11:00   70.6    17    4.3    52     10.2   881.3    0.00     957     72.2
 149   11:10   70.7    17    3.7   109     10.4   881.2    0.00     793     72.7
 149   11:20   71.8    17    5.2   181      9.6   881.2    0.00     921     73.2
 149   11:30   72.4    16    4.5   194      8.1   881.1    0.00    1021     73.7
 149   11:40   72.1    16    5.0   235      8.6   881.1    0.00    1019     74.2
 149   11:50   72.1    16    4.2   296      6.6   881.0    0.00    1005     74.7
 149   12:00   73.2    16    4.0   218      8.2   880.9    0.00     997     75.2
 149   12:10   73.1    16    4.0   163      9.1   880.8    0.00     978     75.7
 149   12:20   73.9    15    3.3   208      7.5   880.7    0.00     974     76.2
 149   12:30   73.8    15    4.3   335     10.2   880.6    0.00     969     76.6
 149   12:40   74.0    15    6.4   275     12.1   880.4    0.00     963     77.1
 149   12:50   74.2    15    4.5   291     10.8   880.3    0.00     955     77.6
 149   13:00   74.1    15    3.1   359      5.8   880.3    0.00     945     78.1
 149   13:10   75.3    15    4.2   328     14.5   880.2    0.00     914     78.6
 149   13:20   75.5    15    6.3   312     13.4   880.1    0.00     915     79.1
 149   13:30   75.3    15    6.7   280     11.6   880.0    0.00     911     79.4
 149   13:40   75.3    15    6.5   312     11.6   880.0    0.00     897     79.8
 149   13:50   75.5    15    4.1   353     11.9   879.9    0.00     879     80.2
 149   14:00   76.5    15    4.5   274     12.6   879.7    0.00     843     80.5
 149   14:10   76.7    15    7.9   225     13.5   879.7    0.00     802     80.9
 149   14:20   77.1    15    4.1   206     11.1   879.7    0.00     813     81.2
 149   14:30   77.5    15    3.5   212      7.4   879.5    0.00     775     81.5
 149   14:40   77.2    15    7.9   250     15.6   879.4    0.00     719     81.8
 149   14:50   76.7    15    5.8   265     12.3   879.3    0.00     763     82.0
 149   15:00   77.3    14    6.5   304     12.8   879.2    0.00     675     82.3
 149   15:10   77.2    14    9.4   308     16.1   879.1    0.00     590     82.6
 149   15:20   77.3    14    7.0   284     11.6   879.1    0.00     693     82.8
 149   15:30   77.9    14    5.6   253     12.4   879.0    0.00     659     83.0
 149   15:40   78.6    12    8.6   229     15.8   879.0    0.00     645     83.2
 149   15:50   77.9    12    6.8   259     13.4   879.0    0.00     571     83.4
 149   16:00   78.3    12    4.8   247      9.9   879.0    0.00     504     83.6
 149   16:10   79.5    12    4.3   195      9.9   879.0    0.00     423     83.7
 149   16:20   79.8    12    3.6   219      9.4   879.0    0.00     405     83.9
 149   16:30   78.6    11    7.0   232     16.3   878.9    0.00     330     83.9
 149   16:40   78.3    11    5.9   234     12.7   879.0    0.00     439     84.1
 149   16:50   78.3    11    4.8   284     10.2   879.1    0.00     441     84.1
 149   17:00   78.6    11    2.1    32      4.2   879.0    0.00     337     84.2
 149   17:10   78.3    11    5.6   240     11.2   879.0    0.00     252     84.2
 149   17:20   77.8    11    5.1   203      9.3   879.0    0.00     248     84.2
 149   17:30   78.2    11    5.2   203     14.0   879.0    0.00     204     84.2
 149   17:40   77.6    12    7.8   223     14.8   879.1    0.00     146     84.2
 149   17:50   77.3    12    8.3   238     15.1   879.2    0.00     127     84.1
 149   18:00   77.0    12    8.0   254     12.1   879.3    0.00     109     84.1
 149   18:10   76.9    12    5.3   223      8.4   879.4    0.00      95     83.9
 149   18:20   77.0    12    2.8   190      6.3   879.5    0.00      86     83.8
 149   18:30   77.1    12    7.0   256     10.9   879.6    0.00      75     83.7
 149   18:40   76.7    12    7.6   254      9.6   879.6    0.00      53     83.5
 149   18:50   76.3    15    9.5   235     17.5   879.7    0.00      43     83.4
 149   19:00   74.6    21   18.4   220     22.4   879.5    0.00      29     83.1
 149   19:10   73.8    23   19.0   221     24.0   879.7    0.00      15     82.9
 149   19:20   72.8    24   19.5   218     24.3   879.8    0.00       6     82.7

Return to Carson Sink graphs page.


Western Regional Climate Center,wrcc@dri.edu